Time;durP1;ratioP1;P1;durP2;ratioP2;P2;SDS_P1;SDS_P2;PMS_P1;PMS_P2;Temp;Humidity;BMP_temperature;BMP_pressure;BME280_temperature;BME280_humidity;BME280_pressure;Samples;Min_cycle;Max_cycle;Signal;HPM_P1;HPM_P2
2022/11/05 00:10:06;;;;;;;5.43;2.53;;;;;;;7.75;100.00;101513.09;5076497;28;20086;-34
2022/11/05 00:17:59;;;;;;;7.45;2.75;;;;;;;7.65;100.00;101524.19;5076373;28;20089;-34
2022/11/05 00:20:24;;;;;;;4.97;2.93;;;;;;;7.67;100.00;101524.03;5076002;28;20044;-34
2022/11/05 00:25:42;;;;;;;5.18;2.97;;;;;;;7.48;100.00;101538.97;5076561;28;20035;-34
2022/11/05 00:28:07;;;;;;;4.13;2.80;;;;;;;7.39;100.00;101530.19;5076429;28;20036;-34
2022/11/05 00:30:33;;;;;;;8.47;3.13;;;;;;;7.25;100.00;101531.09;5074478;28;20465;-34
2022/11/05 00:33:02;;;;;;;4.40;3.00;;;;;;;7.30;100.00;101543.97;5076104;28;20033;-34
2022/11/05 00:35:27;;;;;;;5.43;3.83;;;;;;;7.21;100.00;101548.66;5074669;28;20045;-34
2022/11/05 00:37:53;;;;;;;7.07;3.72;;;;;;;7.15;100.00;101555.63;5076024;28;20039;-34
2022/11/05 00:40:19;;;;;;;5.80;3.50;;;;;;;7.14;100.00;101551.28;5075453;28;20032;-34
2022/11/05 00:45:29;;;;;;;5.80;3.35;;;;;;;7.06;100.00;101551.38;5075371;28;20051;-34
2022/11/05 00:50:38;;;;;;;5.55;3.53;;;;;;;6.84;100.00;101558.59;5075496;28;20098;-34
2022/11/05 00:53:03;;;;;;;5.30;3.35;;;;;;;6.80;100.00;101559.16;5075480;28;20040;-34
2022/11/05 00:55:39;;;;;;;5.20;2.95;;;;;;;6.87;100.00;101562.75;5075175;28;20032;-34
2022/11/05 00:58:11;;;;;;;6.28;3.38;;;;;;;6.83;100.00;101566.84;5075589;28;20052;-34
2022/11/05 01:00:40;;;;;;;7.82;3.50;;;;;;;6.80;100.00;101562.69;5075339;28;20028;-34
2022/11/05 01:03:08;;;;;;;4.57;2.83;;;;;;;6.85;100.00;101572.88;5075803;28;20107;-34
2022/11/05 01:05:39;;;;;;;5.60;3.03;;;;;;;6.76;100.00;101561.38;5074937;28;20059;-34
2022/11/05 01:08:04;;;;;;;6.05;3.42;;;;;;;6.79;100.00;101579.84;5075711;28;20047;-34
2022/11/05 01:10:30;;;;;;;5.00;2.90;;;;;;;6.76;100.00;101565.94;5074165;28;20025;-34
2022/11/05 01:12:56;;;;;;;5.43;3.50;;;;;;;6.77;100.00;101572.97;5075384;28;20111;-34
2022/11/05 01:15:21;;;;;;;6.82;3.47;;;;;;;6.70;100.00;101568.34;5075061;28;20441;-34
2022/11/05 01:17:47;;;;;;;6.03;3.88;;;;;;;6.76;100.00;101580.22;5075578;28;20028;-34
2022/11/05 01:20:12;;;;;;;5.85;3.55;;;;;;;6.71;100.00;101590.69;5073837;28;20058;-34
2022/11/05 01:22:38;;;;;;;7.90;4.03;;;;;;;6.72;100.00;101592.34;5075083;28;20036;-34
2022/11/05 01:25:06;;;;;;;8.90;4.00;;;;;;;6.70;100.00;101592.53;5074632;28;20043;-34
2022/11/05 01:27:31;;;;;;;7.57;3.95;;;;;;;6.66;100.00;101593.09;5074062;28;20036;-34
2022/11/05 01:29:56;;;;;;;5.77;3.43;;;;;;;6.69;100.00;101604.31;5075076;28;20029;-34
2022/11/05 01:32:22;;;;;;;5.00;3.40;;;;;;;6.62;100.00;101606.06;5075498;28;20077;-34
2022/11/05 01:34:47;;;;;;;5.63;4.03;;;;;;;6.61;100.00;101603.59;5074467;28;20029;-34
2022/11/05 01:37:12;;;;;;;6.03;3.93;;;;;;;6.58;100.00;101606.63;5075182;28;20380;-34
2022/11/05 01:39:37;;;;;;;7.10;3.67;;;;;;;6.55;100.00;101598.97;5074890;28;20074;-34
2022/11/05 01:42:11;;;;;;;4.47;2.93;;;;;;;6.61;100.00;101606.28;5075572;28;20036;-34
2022/11/05 01:44:56;;;;;;;4.60;3.08;;;;;;;6.45;100.00;101597.38;5074975;28;20031;-34
2022/11/05 01:47:27;;;;;;;5.35;3.72;;;;;;;6.55;100.00;101607.84;5074728;28;20028;-34
2022/11/05 01:49:53;;;;;;;9.32;3.92;;;;;;;6.48;100.00;101603.41;5074698;28;20039;-34
2022/11/05 01:52:18;;;;;;;;;;;;;;;6.65;100.00;101607.56;5075013;28;20034;-34
2022/11/05 01:54:46;;;;;;;4.65;3.08;;;;;;;6.58;100.00;101612.00;5074075;28;19913;-34
2022/11/05 01:57:12;;;;;;;5.22;3.30;;;;;;;6.43;100.00;101598.56;5074384;28;20021;-34
2022/11/05 01:59:45;;;;;;;7.90;3.55;;;;;;;6.53;100.00;101603.66;5074197;28;20109;-34
2022/11/05 02:02:11;;;;;;;4.35;3.50;;;;;;;6.52;100.00;101602.00;5074147;28;20469;-34
2022/11/05 02:04:40;;;;;;;5.03;3.23;;;;;;;6.43;100.00;101598.56;5074772;28;20108;-34
2022/11/05 02:07:08;;;;;;;6.30;2.88;;;;;;;6.51;100.00;101597.66;5074246;28;20032;-34
2022/11/05 02:09:54;;;;;;;5.80;3.40;;;;;;;6.28;100.00;101568.19;5073699;28;20032;-34
2022/11/05 02:12:21;;;;;;;4.75;2.97;;;;;;;6.37;100.00;101578.66;5073457;28;20028;-34
2022/11/05 02:14:47;;;;;;;5.63;2.97;;;;;;;6.31;100.00;101584.78;5074436;28;20020;-34
2022/11/05 02:17:25;;;;;;;4.85;3.15;;;;;;;6.35;100.00;101586.09;5073847;28;20232;-33
2022/11/05 02:20:27;;;;;;;4.05;2.63;;;;;;;6.30;100.00;101593.03;5073855;28;20131;-34
2022/11/05 02:23:14;;;;;;;5.43;2.90;;;;;;;6.37;100.00;101593.94;5074306;28;20521;-34
2022/11/05 02:26:09;;;;;;;5.45;2.72;;;;;;;6.41;100.00;101590.72;5074274;28;20048;-34
2022/11/05 02:28:49;;;;;;;6.40;2.75;;;;;;;6.36;100.00;101593.13;5074134;28;20078;-34
2022/11/05 02:31:26;;;;;;;5.35;3.20;;;;;;;6.32;100.00;101596.34;5073615;28;20027;-34
2022/11/05 02:34:15;;;;;;;3.75;2.50;;;;;;;6.28;100.00;101598.56;5072790;28;20031;-34
2022/11/05 02:37:02;;;;;;;7.25;3.15;;;;;;;6.23;100.00;101587.53;5073652;28;20158;-34
2022/11/05 02:40:02;;;;;;;4.22;2.50;;;;;;;6.19;100.00;101594.31;5073722;28;20368;-34
2022/11/05 02:42:55;;;;;;;5.75;2.67;;;;;;;6.21;100.00;101581.53;5068996;28;20028;-34
2022/11/05 02:45:46;;;;;;;5.97;3.15;;;;;;;6.25;100.00;101588.22;5073892;28;20070;-34
2022/11/05 02:48:11;;;;;;;7.05;2.60;;;;;;;6.28;100.00;101590.50;5073032;28;20031;-34
2022/11/05 02:51:03;;;;;;;6.70;2.80;;;;;;;6.31;100.00;101584.78;5073303;28;20028;-34
2022/11/05 02:53:44;;;;;;;8.52;3.17;;;;;;;6.31;100.00;101592.00;5072551;28;20040;-34
2022/11/05 02:56:19;;;;;;;4.28;2.80;;;;;;;6.28;100.00;101590.50;5073130;28;20028;-34
2022/11/05 02:58:44;;;;;;;6.72;2.90;;;;;;;6.28;100.00;101590.50;5073435;28;20433;-34
2022/11/05 03:01:11;;;;;;;6.03;3.07;;;;;;;6.18;100.00;101577.34;5072856;28;20067;-34
2022/11/05 03:03:39;;;;;;;5.97;3.08;;;;;;;6.22;100.00;101585.06;5073094;28;20021;-34
2022/11/05 03:06:22;;;;;;;6.60;3.00;;;;;;;6.25;100.00;101580.16;5073493;28;20028;-34
2022/11/05 03:09:12;;;;;;;4.45;2.63;;;;;;;6.25;100.00;101577.47;5073517;28;20064;-34
2022/11/05 03:12:01;;;;;;;6.78;2.80;;;;;;;6.08;100.00;101568.72;5073154;28;20067;-34
2022/11/05 03:15:09;;;;;;;4.22;2.80;;;;;;;6.24;100.00;101580.31;5073462;28;20023;-34
2022/11/05 03:17:44;;;;;;;5.20;3.33;;;;;;;6.14;100.00;101584.09;5050474;28;20052;-34
2022/11/05 03:20:33;;;;;;;5.03;2.80;;;;;;;6.22;100.00;101591.25;5050852;28;20053;-34
2022/11/05 03:23:20;;;;;;;7.30;2.67;;;;;;;6.19;100.00;101592.44;5049788;28;20037;-34
2022/11/05 03:25:56;;;;;;;7.13;3.80;;;;;;;6.16;100.00;101592.00;5049800;28;20049;-34
2022/11/05 03:28:24;;;;;;;;;;;;;;;6.22;100.00;101588.56;5051062;28;20386;-34
2022/11/05 03:30:50;;;;;;;;;;;;;;;6.18;100.00;101596.16;5050726;28;19938;-34
2022/11/05 03:33:21;;;;;;;6.80;2.97;;;;;;;6.10;100.00;101592.72;5050654;28;19912;-34
2022/11/05 03:35:52;;;;;;;6.45;3.22;;;;;;;6.06;100.00;101594.94;5050258;28;20033;-34
2022/11/05 03:38:29;;;;;;;6.78;3.30;;;;;;;6.06;100.00;101597.63;5050354;28;20067;-34
2022/11/05 03:41:00;;;;;;;9.02;3.95;;;;;;;6.10;100.00;101596.25;5050375;28;20044;-34
2022/11/05 03:43:30;;;;;;;8.15;3.70;;;;;;;5.98;100.00;101584.28;5050487;28;20025;-34
2022/11/05 03:46:01;;;;;;;5.65;3.60;;;;;;;6.04;100.00;101596.13;5050300;28;20096;-34
2022/11/05 03:48:30;;;;;;;8.70;3.60;;;;;;;5.89;100.00;101586.16;5050557;28;20170;-34
2022/11/05 03:51:05;;;;;;;6.95;3.65;;;;;;;5.92;100.00;101593.91;5050065;28;20040;-33
2022/11/05 03:53:38;;;;;;;5.95;3.58;;;;;;;5.86;100.00;101599.97;5066289;28;20056;-33
2022/11/05 03:56:21;;;;;;;5.75;3.85;;;;;;;5.88;100.00;101589.03;5072678;28;20054;-33
2022/11/05 03:58:47;;;;;;;8.25;4.38;;;;;;;5.86;100.00;101596.47;5073226;28;20028;-33
2022/11/05 04:01:13;;;;;;;6.50;4.43;;;;;;;5.87;100.00;101596.25;5072495;28;20330;-33
2022/11/05 04:03:38;;;;;;;5.40;3.97;;;;;;;5.80;100.00;101589.94;5072343;28;20051;-33
2022/11/05 04:14:18;;;;;;;6.13;4.32;;;;;;;5.84;100.00;101603.84;5072652;28;20035;-33
2022/11/05 04:24:56;;;;;;;7.50;4.53;;;;;;;5.86;100.00;101617.94;5050446;28;20037;-34
2022/11/05 04:27:22;;;;;;;8.93;4.67;;;;;;;5.79;100.00;101620.47;5050009;28;20068;-33
2022/11/05 04:32:31;;;;;;;7.65;5.20;;;;;;;5.81;100.00;101623.84;5049798;28;20071;-33
2022/11/05 04:34:56;;;;;;;10.47;4.87;;;;;;;5.78;100.00;101621.50;5049918;28;20025;-33
2022/11/05 04:37:21;;;;;;;9.93;5.00;;;;;;;5.81;100.00;101629.22;5053583;28;20091;-33
2022/11/05 04:39:47;;;;;;;10.37;5.27;;;;;;;5.80;100.00;101630.19;5053406;28;20065;-33
2022/11/05 04:42:12;;;;;;;9.73;5.27;;;;;;;5.78;100.00;101621.50;5053646;28;20574;-33
2022/11/05 04:44:37;;;;;;;9.27;5.63;;;;;;;5.78;100.00;101626.03;5053575;28;20052;-33
2022/11/05 04:47:02;;;;;;;9.83;5.63;;;;;;;5.74;100.00;101619.34;5053565;28;20036;-33
2022/11/05 04:49:28;;;;;;;7.53;5.20;;;;;;;5.72;100.00;101630.28;5053310;28;20041;-33
2022/11/05 04:51:53;;;;;;;6.37;4.97;;;;;;;5.64;100.00;101625.81;5053077;28;20040;-33
2022/11/05 04:54:18;;;;;;;10.73;5.93;;;;;;;5.71;100.00;101630.44;5053160;28;20053;-33
2022/11/05 04:56:44;;;;;;;13.10;5.97;;;;;;;5.67;100.00;101633.50;5052969;28;20037;-33
2022/11/05 04:59:09;;;;;;;8.87;5.77;;;;;;;5.67;100.00;101624.63;5053119;28;20029;-33
2022/11/05 05:01:34;;;;;;;14.63;6.23;;;;;;;5.66;100.00;101630.97;5060051;28;20050;-33
2022/11/05 05:04:00;;;;;;;9.73;5.77;;;;;;;5.66;100.00;101639.03;5075167;28;20031;-33
2022/11/05 05:06:25;;;;;;;9.67;5.70;;;;;;;5.59;100.00;101638.94;5075292;28;20020;-33
2022/11/05 05:08:50;;;;;;;9.83;5.90;;;;;;;5.60;100.00;101637.91;5076101;28;20071;-33
2022/11/05 05:11:19;;;;;;;10.77;5.40;;;;;;;5.59;100.00;101643.47;5074792;28;20521;-33
2022/11/05 05:13:45;;;;;;;8.88;6.22;;;;;;;5.58;100.00;101637.25;5075456;28;20020;-33
2022/11/05 05:16:19;;;;;;;12.65;5.88;;;;;;;5.54;100.00;101641.31;5075109;28;20040;-33
2022/11/05 05:18:44;;;;;;;8.25;5.47;;;;;;;5.57;100.00;101653.53;5075348;28;20039;-33
2022/11/05 05:23:53;;;;;;;9.32;6.68;;;;;;;5.54;100.00;101651.22;5074743;28;20047;-33
2022/11/05 05:26:19;;;;;;;6.90;4.97;;;;;;;5.59;100.00;101649.66;5074957;28;20029;-34
2022/11/05 05:28:44;;;;;;;9.17;5.53;;;;;;;5.58;100.00;101653.34;5075186;28;20052;-34
2022/11/05 05:31:09;;;;;;;9.30;5.83;;;;;;;5.46;100.00;101649.41;5074567;28;20392;-34
2022/11/05 05:33:35;;;;;;;11.03;5.90;;;;;;;5.48;100.00;101658.13;5074068;28;20025;-33
2022/11/05 05:36:01;;;;;;;10.25;6.25;;;;;;;5.50;100.00;101657.94;5075265;28;20441;-33
2022/11/05 05:38:28;;;;;;;9.70;6.40;;;;;;;5.29;100.00;101635.28;5074710;28;20035;-33
2022/11/05 05:40:56;;;;;;;11.90;6.18;;;;;;;5.35;100.00;101647.97;5074360;28;20025;-33
2022/11/05 05:43:22;;;;;;;11.75;6.22;;;;;;;5.40;100.00;101661.69;5074869;28;20028;-33
2022/11/05 05:45:47;;;;;;;8.73;6.43;;;;;;;5.29;100.00;101643.31;5074984;28;20031;-33
2022/11/05 05:48:12;;;;;;;18.37;7.63;;;;;;;5.29;100.00;101653.22;5073969;28;20055;-33
2022/11/05 05:50:38;;;;;;;9.53;6.60;;;;;;;5.31;100.00;101656.53;5074517;28;20020;-33
2022/11/05 05:53:03;;;;;;;11.40;7.13;;;;;;;5.33;100.00;101666.09;5074652;28;20039;-33
2022/11/05 05:55:28;;;;;;;11.37;6.53;;;;;;;5.31;100.00;101659.22;5074351;28;20032;-33
2022/11/05 05:57:53;;;;;;;10.13;6.83;;;;;;;5.39;100.00;101665.38;5074779;28;20085;-33
2022/11/05 06:00:19;;;;;;;8.73;6.83;;;;;;;5.39;100.00;101660.00;5074285;28;20391;-33
2022/11/05 06:02:44;;;;;;;9.60;6.10;;;;;;;5.35;100.00;101656.00;5073962;28;20024;-33
2022/11/05 06:05:10;;;;;;;8.10;6.57;;;;;;;5.37;100.00;101678.16;5073837;28;20024;-33
2022/11/05 06:07:35;;;;;;;10.07;6.87;;;;;;;5.32;100.00;101668.94;5074378;28;20021;-33
2022/11/05 06:10:00;;;;;;;10.33;6.90;;;;;;;5.38;100.00;101662.88;5074236;28;20025;-33
2022/11/05 06:12:28;;;;;;;7.10;6.10;;;;;;;5.39;100.00;101662.69;5074710;28;20039;-33
2022/11/05 06:14:53;;;;;;;10.82;6.68;;;;;;;5.37;100.00;101658.53;5073963;28;20033;-33
2022/11/05 06:17:19;;;;;;;8.93;6.27;;;;;;;5.35;100.00;101660.53;5074188;28;20538;-33
2022/11/05 06:19:44;;;;;;;10.07;7.30;;;;;;;5.40;100.00;101677.78;5073907;28;20051;-33
2022/11/05 06:22:09;;;;;;;11.87;7.57;;;;;;;5.34;100.00;101669.59;5074202;28;20329;-33
2022/11/05 06:24:34;;;;;;;12.37;6.77;;;;;;;5.37;100.00;101675.47;5073562;28;20028;-33
2022/11/05 06:27:00;;;;;;;14.13;7.03;;;;;;;5.33;100.00;101671.47;5073078;28;20094;-33
2022/11/05 06:29:25;;;;;;;11.87;7.90;;;;;;;5.36;100.00;101679.13;5073408;28;20075;-33
2022/11/05 06:31:50;;;;;;;9.07;7.27;;;;;;;5.29;100.00;101670.13;5073062;28;20029;-34
2022/11/05 06:34:16;;;;;;;10.07;6.97;;;;;;;5.36;100.00;101681.81;5073624;28;20103;-33
2022/11/05 06:36:41;;;;;;;10.77;7.30;;;;;;;5.31;100.00;101678.81;5072931;28;20038;-34
2022/11/05 06:39:11;;;;;;;10.23;6.60;;;;;;;5.32;100.00;101685.88;5073481;28;20027;-33
2022/11/05 06:41:36;;;;;;;9.10;6.55;;;;;;;5.34;100.00;101675.81;5073282;28;20378;-34
2022/11/05 06:44:02;;;;;;;9.60;6.50;;;;;;;5.26;100.00;101683.88;5073362;28;20036;-34
2022/11/05 06:46:27;;;;;;;11.68;7.30;;;;;;;5.32;100.00;101677.84;5073091;28;20081;-34
2022/11/05 06:48:53;;;;;;;10.13;5.90;;;;;;;5.38;100.00;101687.03;5073250;28;20032;-34
2022/11/05 06:51:18;;;;;;;12.68;7.20;;;;;;;5.25;100.00;101684.91;5072911;28;20028;-34
2022/11/05 06:53:43;;;;;;;12.33;7.00;;;;;;;5.22;100.00;101687.94;5073196;28;20043;-34
2022/11/05 06:56:09;;;;;;;12.03;7.03;;;;;;;5.23;100.00;101686.94;5072857;28;20293;-34
2022/11/05 06:58:34;;;;;;;10.03;6.90;;;;;;;5.28;100.00;101689.09;5072632;28;20025;-34
2022/11/05 07:01:09;;;;;;;11.53;6.73;;;;;;;5.31;100.00;101692.25;5072527;28;20358;-34
2022/11/05 07:03:36;;;;;;;10.20;6.70;;;;;;;5.28;100.00;101699.81;5073020;28;20090;-34
2022/11/05 07:06:03;;;;;;;12.30;6.75;;;;;;;5.27;100.00;101696.31;5072989;28;20108;-34
2022/11/05 07:08:36;;;;;;;11.32;6.57;;;;;;;5.23;100.00;101692.31;5071889;28;20107;-34
2022/11/05 07:11:02;;;;;;;11.15;6.82;;;;;;;5.22;100.00;101698.69;5072470;28;20024;-34
2022/11/05 07:13:28;;;;;;;13.63;6.50;;;;;;;5.35;100.00;101696.25;5073155;28;20342;-34
2022/11/05 07:15:53;;;;;;;9.65;6.72;;;;;;;5.17;100.00;101695.66;5072224;28;20063;-34
2022/11/05 07:18:19;;;;;;;10.88;6.90;;;;;;;5.23;100.00;101707.56;5072302;28;20028;-34
2022/11/05 07:20:44;;;;;;;10.80;7.23;;;;;;;5.10;100.00;101679.44;5072632;28;20072;-34
2022/11/05 07:23:11;;;;;;;10.23;6.97;;;;;;;5.22;100.00;101712.09;5070807;28;20021;-34
2022/11/05 07:25:37;;;;;;;8.45;7.20;;;;;;;5.30;100.00;101709.34;5071004;28;20039;-34
2022/11/05 07:28:03;;;;;;;12.38;7.28;;;;;;;5.23;100.00;101700.34;5073340;28;20446;-34
2022/11/05 07:30:30;;;;;;;11.05;7.05;;;;;;;5.33;100.00;101711.69;5072365;28;20396;-34
2022/11/05 07:32:55;;;;;;;10.95;6.85;;;;;;;5.41;100.00;101708.13;5072387;28;20051;-34
2022/11/05 07:35:21;;;;;;;10.50;6.53;;;;;;;5.42;100.00;101713.31;5071442;28;20412;-34
2022/11/05 07:37:49;;;;;;;8.23;6.03;;;;;;;5.53;100.00;101724.66;5071802;28;20020;-34
2022/11/05 07:40:17;;;;;;;12.60;6.45;;;;;;;5.54;100.00;101724.47;5072273;28;20120;-34
2022/11/05 07:42:43;;;;;;;8.75;5.95;;;;;;;5.58;100.00;101727.66;5072116;28;20040;-34
2022/11/05 07:45:10;;;;;;;7.60;5.82;;;;;;;5.54;100.00;101716.44;5072597;28;20111;-34
2022/11/05 07:47:37;;;;;;;9.45;5.65;;;;;;;5.66;100.00;101724.91;5072538;28;20127;-34
2022/11/05 07:50:03;;;;;;;7.53;5.82;;;;;;;5.66;100.00;101716.84;5072133;28;20033;-34
2022/11/05 07:52:30;;;;;;;;;;;;;;;5.81;100.00;101723.16;5072936;28;20028;-34
2022/11/05 07:54:55;;;;;;;8.02;5.63;;;;;;;5.81;100.00;101733.88;5072770;28;19916;-34
2022/11/05 07:57:20;;;;;;;11.20;6.47;;;;;;;5.86;100.00;101728.81;5072885;28;20469;-34
2022/11/05 07:59:45;;;;;;;10.33;6.23;;;;;;;5.86;100.00;101717.25;5072480;28;20064;-34
2022/11/05 08:02:11;;;;;;;12.20;6.27;;;;;;;5.79;100.00;101714.41;5072618;28;20059;-34
2022/11/05 08:04:39;;;;;;;9.73;5.60;;;;;;;5.98;100.00;101729.25;5072724;28;20536;-34
2022/11/05 08:07:04;;;;;;;9.13;5.57;;;;;;;6.05;100.00;101730.22;5072240;28;20033;-34
2022/11/05 08:09:29;;;;;;;9.10;6.40;;;;;;;5.98;100.00;101718.53;5072551;28;20085;-34
2022/11/05 08:11:56;;;;;;;9.40;6.00;;;;;;;6.15;100.00;101735.34;5075252;28;20531;-34
2022/11/05 08:14:21;;;;;;;9.05;6.13;;;;;;;6.24;100.00;101731.56;5076843;28;20373;-34
2022/11/05 08:16:47;;;;;;;9.15;5.88;;;;;;;6.23;100.00;101729.91;5076430;28;20103;-34
2022/11/05 08:19:13;;;;;;;7.07;5.63;;;;;;;6.37;100.00;101733.66;5077097;28;20064;-34
2022/11/05 08:21:39;;;;;;;8.60;5.87;;;;;;;6.34;100.00;101723.25;5076611;28;20461;-34
2022/11/05 08:24:04;;;;;;;9.82;6.53;;;;;;;6.47;100.00;101726.16;5076819;28;20032;-34
2022/11/05 08:26:29;;;;;;;10.82;7.00;;;;;;;6.50;100.00;101731.19;5076150;28;20059;-34
2022/11/05 08:28:55;;;;;;;10.40;6.37;;;;;;;6.53;100.00;101719.22;5076351;28;20366;-34
2022/11/05 08:31:20;;;;;;;8.50;6.00;;;;;;;6.63;100.00;101736.75;5075937;28;20032;-34
2022/11/05 08:33:45;;;;;;;10.90;7.23;;;;;;;6.68;100.00;101725.44;5075835;28;20029;-34
2022/11/05 08:36:11;;;;;;;9.67;5.60;;;;;;;6.79;100.00;101733.06;5075984;28;20017;-35
2022/11/05 08:38:36;;;;;;;9.53;6.10;;;;;;;6.81;100.00;101732.88;5076678;28;20484;-34
2022/11/05 08:41:01;;;;;;;12.27;6.40;;;;;;;6.88;100.00;101736.47;5076371;28;20466;-34
2022/11/05 08:43:27;;;;;;;9.47;6.63;;;;;;;6.94;100.00;101738.47;5074670;28;20465;-35
2022/11/05 08:45:53;;;;;;;11.07;6.90;;;;;;;6.97;100.00;101730.84;5076221;28;20029;-34
2022/11/05 08:48:19;;;;;;;11.45;7.40;;;;;;;7.09;100.00;101746.53;5075687;28;20020;-34
2022/11/05 08:50:47;;;;;;;9.55;6.95;;;;;;;7.12;100.00;101735.38;5075914;28;20322;-34
2022/11/05 08:53:13;;;;;;;12.45;7.13;;;;;;;7.20;100.00;101732.59;5075846;28;20028;-34
2022/11/05 08:55:38;;;;;;;;;;;;;;;7.35;100.00;101736.09;5075582;28;20025;-34
2022/11/05 08:58:06;;;;;;;11.10;6.10;;;;;;;7.37;100.00;101741.28;5075678;28;19957;-34
2022/11/05 09:00:34;;;;;;;7.95;6.22;;;;;;;7.42;100.00;101742.41;5076171;28;20063;-34
2022/11/05 09:03:01;;;;;;;11.13;6.88;;;;;;;7.51;100.00;101736.91;5075124;28;20044;-34
2022/11/05 09:05:27;;;;;;;9.18;6.70;;;;;;;7.59;100.00;101739.50;5074956;28;20115;-34
2022/11/05 09:07:52;;;;;;;8.50;6.40;;;;;;;7.63;100.00;101741.63;5075279;28;20035;-34
2022/11/05 09:10:17;;;;;;;11.40;7.13;;;;;;;7.64;100.00;101734.38;5075116;28;20099;-34
2022/11/05 09:12:43;;;;;;;9.57;6.80;;;;;;;7.75;100.00;101731.16;5075368;28;20036;-34
2022/11/05 09:15:08;;;;;;;11.47;6.77;;;;;;;7.86;100.00;101743.31;5075701;28;20029;-34
2022/11/05 09:17:34;;;;;;;10.27;6.10;;;;;;;7.93;100.00;101730.75;5076002;28;20027;-34
2022/11/05 09:20:00;;;;;;;10.17;6.50;;;;;;;8.02;100.00;101740.38;5074871;28;20085;-34
2022/11/05 09:22:26;;;;;;;9.23;6.65;;;;;;;8.09;100.00;101732.34;5073564;28;20044;-34
2022/11/05 09:24:51;;;;;;;12.23;6.53;;;;;;;8.16;100.00;101736.78;5074898;28;20079;-34
2022/11/05 09:27:16;;;;;;;9.57;6.40;;;;;;;8.25;100.00;101726.72;5074033;28;20237;-34
2022/11/05 09:29:42;;;;;;;8.57;5.93;;;;;;;8.33;100.00;101741.88;5074837;28;20079;-34
2022/11/05 09:32:08;;;;;;;9.70;5.43;;;;;;;8.27;100.00;101717.38;5074765;28;20021;-34
2022/11/05 09:34:34;;;;;;;13.95;6.28;;;;;;;8.46;100.00;101729.41;5074923;28;20032;-34
2022/11/05 09:37:00;;;;;;;8.57;5.45;;;;;;;8.43;100.00;101713.59;5074500;28;20043;-34
2022/11/05 09:39:25;;;;;;;7.43;5.43;;;;;;;8.56;100.00;101730.91;5074694;28;20048;-34
2022/11/05 09:41:54;;;;;;;9.87;5.63;;;;;;;8.57;100.00;101733.41;5075201;28;20047;-34
2022/11/05 09:44:32;;;;;;;7.95;5.00;;;;;;;8.67;100.00;101741.16;5073527;28;20047;-34
2022/11/05 09:47:03;;;;;;;9.10;4.93;;;;;;;8.79;100.00;101741.47;5075291;28;20465;-34
2022/11/05 09:49:34;;;;;;;9.48;5.22;;;;;;;8.90;100.00;101740.91;5075116;28;20111;-34
2022/11/05 09:52:00;;;;;;;6.00;4.68;;;;;;;8.91;100.00;101737.16;5075064;28;20058;-34
2022/11/05 09:54:32;;;;;;;7.72;4.78;;;;;;;9.02;100.00;101739.31;5073984;28;20461;-34
2022/11/05 09:57:00;;;;;;;8.35;5.00;;;;;;;9.00;100.00;101734.13;5074669;28;20477;-34
2022/11/05 09:59:32;;;;;;;10.50;4.68;;;;;;;9.23;100.00;101754.59;5073605;28;20035;-34
2022/11/05 10:02:18;;;;;;;14.07;5.10;;;;;;;9.31;99.27;101759.81;5073673;28;20416;-34
2022/11/05 10:04:46;;;;;;;6.40;4.68;;;;;;;9.41;99.34;101762.97;5074091;28;20044;-34
2022/11/05 10:07:17;;;;;;;5.80;4.10;;;;;;;9.47;99.14;101756.78;5074094;28;20021;-34
2022/11/05 10:09:47;;;;;;;8.02;4.53;;;;;;;9.32;99.17;101742.59;5074327;28;20113;-34
2022/11/05 10:12:59;;;;;;;7.75;4.90;;;;;;;9.41;99.17;101771.06;5074066;28;20028;-34
2022/11/05 10:15:36;;;;;;;7.47;4.55;;;;;;;9.36;99.20;101770.81;5074150;28;20047;-34
2022/11/05 10:18:20;;;;;;;8.13;4.30;;;;;;;9.30;99.26;101760.84;5074588;28;20415;-33
2022/11/05 10:20:46;;;;;;;6.60;4.30;;;;;;;9.36;99.30;101781.63;5074361;28;20032;-34
2022/11/05 10:23:16;;;;;;;8.35;4.40;;;;;;;9.38;99.27;101779.56;5074298;28;20036;-33
2022/11/05 10:25:46;;;;;;;5.78;4.40;;;;;;;9.41;99.68;101776.47;5073314;28;20037;-34
2022/11/05 10:28:17;;;;;;;8.35;4.93;;;;;;;9.40;99.77;101773.97;5072727;28;20032;-34
2022/11/05 10:30:45;;;;;;;9.55;4.43;;;;;;;9.46;98.04;101790.19;5074025;28;20430;-34
2022/11/05 10:33:13;;;;;;;10.52;5.03;;;;;;;9.45;98.12;101780.44;5073419;28;20394;-34
2022/11/05 10:35:48;;;;;;;7.60;4.70;;;;;;;9.43;97.45;101785.22;5073758;28;20037;-33
2022/11/05 10:38:14;;;;;;;9.35;4.32;;;;;;;9.38;97.64;101773.34;5073545;28;20593;-34
2022/11/05 10:40:42;;;;;;;7.83;4.87;;;;;;;9.46;97.77;101778.56;5072645;28;20033;-33
2022/11/05 10:43:34;;;;;;;7.50;4.75;;;;;;;9.49;99.06;101781.69;5073273;28;20270;-34
2022/11/05 10:46:33;;;;;;;8.20;5.13;;;;;;;9.39;99.10;101767.75;5073257;28;20032;-34
2022/11/05 10:49:19;;;;;;;7.30;4.28;;;;;;;9.43;99.84;101776.28;5072531;28;20021;-34
2022/11/05 10:51:51;;;;;;;7.88;4.95;;;;;;;9.48;99.78;101769.25;5053430;28;20029;-34
2022/11/05 10:54:20;;;;;;;9.45;4.75;;;;;;;9.45;100.00;101764.22;5053423;28;20450;-34
2022/11/05 10:56:45;;;;;;;7.30;4.65;;;;;;;9.53;99.91;101771.34;5068812;28;20021;-34
2022/11/05 10:59:18;;;;;;;7.80;4.65;;;;;;;9.55;99.54;101767.38;5053807;28;20029;-34
2022/11/05 11:01:45;;;;;;;9.20;4.47;;;;;;;9.58;100.00;101770.72;5053338;28;20033;-34
2022/11/05 11:04:21;;;;;;;7.25;4.60;;;;;;;9.52;98.62;101775.91;5068954;28;20033;-34
2022/11/05 11:06:52;;;;;;;6.00;4.38;;;;;;;9.52;98.39;101765.09;5053222;28;20485;-34
2022/11/05 11:09:30;;;;;;;7.00;4.50;;;;;;;9.60;97.60;101771.34;5053406;28;20028;-34
2022/11/05 11:12:06;;;;;;;7.93;4.82;;;;;;;9.58;97.51;101773.44;5070897;28;20021;-34
2022/11/05 11:14:33;;;;;;;9.25;4.47;;;;;;;9.59;97.49;101770.53;5073688;28;20028;-34
2022/11/05 11:17:23;;;;;;;7.10;4.65;;;;;;;9.63;97.37;101781.75;5072817;28;20528;-34
2022/11/05 11:19:50;;;;;;;10.73;4.63;;;;;;;9.67;97.40;101772.22;5073878;28;20028;-34
2022/11/05 11:22:18;;;;;;;10.30;5.18;;;;;;;9.73;97.82;101771.41;5073726;28;20052;-34
2022/11/05 11:24:47;;;;;;;9.52;4.97;;;;;;;9.62;97.25;101743.13;5071759;28;20039;-34
2022/11/05 11:27:23;;;;;;;13.80;4.93;;;;;;;9.79;97.77;101763.31;5073055;28;20029;-35
2022/11/05 11:29:55;;;;;;;11.38;4.90;;;;;;;9.83;97.11;101757.53;5073243;28;20059;-34
2022/11/05 11:32:21;;;;;;;9.48;5.43;;;;;;;9.85;97.06;101758.97;5073120;28;20368;-34
2022/11/05 11:34:51;;;;;;;8.35;4.78;;;;;;;9.93;97.03;101755.25;5072918;28;20043;-34
2022/11/05 11:37:33;;;;;;;10.13;5.90;;;;;;;9.97;96.14;101760.03;5072697;28;20028;-34
2022/11/05 11:40:21;;;;;;;11.25;5.75;;;;;;;10.08;97.15;101761.31;5073402;28;20032;-34
2022/11/05 11:42:52;;;;;;;9.27;4.90;;;;;;;10.24;95.21;101755.53;5072738;28;20032;-34
2022/11/05 11:45:22;;;;;;;8.43;6.00;;;;;;;10.42;95.24;101765.75;5072319;28;20463;-34
2022/11/05 11:47:49;;;;;;;9.02;4.80;;;;;;;10.42;94.09;101765.75;5075997;28;20050;-34
2022/11/05 11:50:30;;;;;;;9.00;5.32;;;;;;;10.54;94.39;101765.94;5076307;28;20025;-34
2022/11/05 11:53:15;;;;;;;8.57;5.70;;;;;;;10.79;93.92;101758.03;5077063;28;20449;-34
2022/11/05 11:56:24;;;;;;;9.15;5.10;;;;;;;11.02;92.59;101758.41;5075332;28;20033;-34
2022/11/05 11:58:54;;;;;;;7.47;5.10;;;;;;;11.13;90.77;101753.41;5034414;28;20075;-34
2022/11/05 12:01:46;;;;;;;7.63;4.70;;;;;;;11.30;90.94;101757.28;5034421;28;20033;-34
2022/11/05 12:04:41;;;;;;;6.63;3.80;;;;;;;11.33;88.63;101741.44;4976399;28;20054;-35
2022/11/05 12:07:21;;;;;;;7.13;4.05;;;;;;;11.47;87.04;101742.22;4975770;28;20117;-34
2022/11/05 12:09:49;;;;;;;6.95;4.05;;;;;;;11.63;87.05;101740.06;4975533;28;20174;-34
2022/11/05 12:12:18;;;;;;;6.32;3.50;;;;;;;11.54;85.37;101732.19;4975385;28;20084;-34
2022/11/05 12:15:37;;;;;;;8.23;3.63;;;;;;;11.62;87.00;101741.13;4975271;28;20059;-34
2022/11/05 12:18:15;;;;;;;7.43;3.17;;;;;;;11.44;84.86;101745.38;4936856;29;20083;-34
2022/11/05 12:21:15;;;;;;;8.00;3.60;;;;;;;11.40;86.31;101746.00;4937398;29;20048;-34
2022/11/05 12:23:40;;;;;;;7.30;3.63;;;;;;;11.34;87.31;101753.13;4936534;29;20134;-34